sensor_id;sensor_type;location;lat;lon;timestamp;P1;durP1;ratioP1;P2;durP2;ratioP2
63114;SDS011;49208;50.874;6.466;2022-11-20T06:01:03;25.52;;;11.88;;
63114;SDS011;49208;50.874;6.466;2022-11-20T06:03:36;33.13;;;14.33;;
63114;SDS011;49208;50.874;6.466;2022-11-20T06:06:02;24.42;;;11.40;;
63114;SDS011;49208;50.874;6.466;2022-11-20T06:08:29;26.85;;;11.70;;
63114;SDS011;49208;50.874;6.466;2022-11-20T06:10:54;29.92;;;14.85;;
63114;SDS011;49208;50.874;6.466;2022-11-20T06:13:19;31.33;;;15.32;;
63114;SDS011;49208;50.874;6.466;2022-11-20T06:15:51;24.35;;;12.73;;
63114;SDS011;49208;50.874;6.466;2022-11-20T06:18:18;28.50;;;13.85;;
63114;SDS011;49208;50.874;6.466;2022-11-20T06:20:44;28.02;;;13.68;;
63114;SDS011;49208;50.874;6.466;2022-11-20T06:23:10;29.48;;;12.73;;
63114;SDS011;49208;50.874;6.466;2022-11-20T06:25:39;27.33;;;12.80;;
63114;SDS011;49208;50.874;6.466;2022-11-20T06:28:05;28.02;;;13.80;;
63114;SDS011;49208;50.874;6.466;2022-11-20T06:30:31;29.35;;;12.85;;
63114;SDS011;49208;50.874;6.466;2022-11-20T06:32:56;22.02;;;10.98;;
63114;SDS011;49208;50.874;6.466;2022-11-20T06:35:22;29.65;;;13.95;;
63114;SDS011;49208;50.874;6.466;2022-11-20T06:37:47;27.45;;;12.88;;
63114;SDS011;49208;50.874;6.466;2022-11-20T06:40:12;26.08;;;14.48;;
63114;SDS011;49208;50.874;6.466;2022-11-20T06:42:38;32.72;;;15.07;;
63114;SDS011;49208;50.874;6.466;2022-11-20T06:45:03;34.95;;;15.48;;
63114;SDS011;49208;50.874;6.466;2022-11-20T06:47:29;30.23;;;14.75;;
63114;SDS011;49208;50.874;6.466;2022-11-20T06:49:54;28.15;;;14.70;;
63114;SDS011;49208;50.874;6.466;2022-11-20T06:52:20;28.60;;;14.73;;
63114;SDS011;49208;50.874;6.466;2022-11-20T06:54:45;34.63;;;15.88;;
63114;SDS011;49208;50.874;6.466;2022-11-20T06:57:11;31.67;;;14.57;;
63114;SDS011;49208;50.874;6.466;2022-11-20T06:59:36;26.80;;;13.18;;
63114;SDS011;49208;50.874;6.466;2022-11-20T07:02:01;27.33;;;13.32;;
63114;SDS011;49208;50.874;6.466;2022-11-20T07:04:27;30.80;;;14.13;;
63114;SDS011;49208;50.874;6.466;2022-11-20T07:06:52;29.52;;;13.13;;
63114;SDS011;49208;50.874;6.466;2022-11-20T07:09:17;27.00;;;13.20;;
63114;SDS011;49208;50.874;6.466;2022-11-20T07:11:43;31.85;;;15.48;;
63114;SDS011;49208;50.874;6.466;2022-11-20T07:14:08;26.55;;;12.38;;
63114;SDS011;49208;50.874;6.466;2022-11-20T07:16:34;28.23;;;12.38;;
63114;SDS011;49208;50.874;6.466;2022-11-20T07:18:59;27.90;;;14.95;;
63114;SDS011;49208;50.874;6.466;2022-11-20T07:21:24;35.83;;;16.83;;
63114;SDS011;49208;50.874;6.466;2022-11-20T07:23:50;36.50;;;15.90;;
63114;SDS011;49208;50.874;6.466;2022-11-20T07:26:15;33.10;;;15.02;;
63114;SDS011;49208;50.874;6.466;2022-11-20T07:28:43;24.52;;;12.00;;
63114;SDS011;49208;50.874;6.466;2022-11-20T07:31:09;33.83;;;15.02;;
63114;SDS011;49208;50.874;6.466;2022-11-20T07:33:34;26.38;;;13.70;;
63114;SDS011;49208;50.874;6.466;2022-11-20T07:36:00;26.83;;;12.65;;
63114;SDS011;49208;50.874;6.466;2022-11-20T07:38:25;31.13;;;14.00;;
63114;SDS011;49208;50.874;6.466;2022-11-20T07:40:54;33.28;;;15.02;;
63114;SDS011;49208;50.874;6.466;2022-11-20T07:43:20;34.00;;;13.18;;
63114;SDS011;49208;50.874;6.466;2022-11-20T07:45:46;28.85;;;14.98;;
63114;SDS011;49208;50.874;6.466;2022-11-20T07:48:11;26.77;;;13.15;;
63114;SDS011;49208;50.874;6.466;2022-11-20T07:50:36;32.67;;;15.05;;
63114;SDS011;49208;50.874;6.466;2022-11-20T07:53:05;28.55;;;13.60;;
63114;SDS011;49208;50.874;6.466;2022-11-20T07:55:31;41.70;;;19.60;;
63114;SDS011;49208;50.874;6.466;2022-11-20T07:57:57;40.15;;;19.40;;
63114;SDS011;49208;50.874;6.466;2022-11-20T08:00:23;35.47;;;16.67;;
63114;SDS011;49208;50.874;6.466;2022-11-20T08:02:50;37.40;;;16.38;;
63114;SDS011;49208;50.874;6.466;2022-11-20T08:05:15;38.03;;;17.02;;
63114;SDS011;49208;50.874;6.466;2022-11-20T08:07:41;38.28;;;17.55;;
63114;SDS011;49208;50.874;6.466;2022-11-20T08:10:09;34.28;;;15.57;;
63114;SDS011;49208;50.874;6.466;2022-11-20T08:12:45;30.08;;;15.88;;
63114;SDS011;49208;50.874;6.466;2022-11-20T08:15:34;29.73;;;14.10;;
63114;SDS011;49208;50.874;6.466;2022-11-20T08:18:00;34.42;;;15.43;;
63114;SDS011;49208;50.874;6.466;2022-11-20T08:20:34;32.00;;;15.32;;
63114;SDS011;49208;50.874;6.466;2022-11-20T08:23:00;30.58;;;15.13;;
63114;SDS011;49208;50.874;6.466;2022-11-20T08:25:28;21.95;;;12.52;;
63114;SDS011;49208;50.874;6.466;2022-11-20T08:27:56;29.98;;;13.45;;
63114;SDS011;49208;50.874;6.466;2022-11-20T08:30:22;33.33;;;15.50;;
63114;SDS011;49208;50.874;6.466;2022-11-20T08:32:48;30.08;;;14.93;;
63114;SDS011;49208;50.874;6.466;2022-11-20T08:35:13;33.15;;;15.77;;
63114;SDS011;49208;50.874;6.466;2022-11-20T08:37:39;34.90;;;16.25;;
63114;SDS011;49208;50.874;6.466;2022-11-20T08:40:06;31.20;;;15.45;;
63114;SDS011;49208;50.874;6.466;2022-11-20T08:42:35;29.58;;;14.70;;
63114;SDS011;49208;50.874;6.466;2022-11-20T08:45:01;34.03;;;14.65;;
63114;SDS011;49208;50.874;6.466;2022-11-20T08:47:26;27.35;;;13.50;;
63114;SDS011;49208;50.874;6.466;2022-11-20T08:49:51;25.30;;;13.68;;
63114;SDS011;49208;50.874;6.466;2022-11-20T08:52:17;23.75;;;12.90;;
63114;SDS011;49208;50.874;6.466;2022-11-20T08:54:42;33.88;;;15.20;;
63114;SDS011;49208;50.874;6.466;2022-11-20T08:57:07;27.45;;;13.95;;
63114;SDS011;49208;50.874;6.466;2022-11-20T08:59:33;28.02;;;13.38;;
63114;SDS011;49208;50.874;6.466;2022-11-20T09:01:58;25.05;;;10.90;;
63114;SDS011;49208;50.874;6.466;2022-11-20T09:04:23;27.08;;;14.85;;
63114;SDS011;49208;50.874;6.466;2022-11-20T09:06:49;23.55;;;12.75;;
63114;SDS011;49208;50.874;6.466;2022-11-20T09:09:16;24.70;;;11.40;;
63114;SDS011;49208;50.874;6.466;2022-11-20T09:11:43;27.13;;;12.93;;
63114;SDS011;49208;50.874;6.466;2022-11-20T09:14:08;24.45;;;13.70;;
63114;SDS011;49208;50.874;6.466;2022-11-20T09:16:34;27.73;;;12.13;;
63114;SDS011;49208;50.874;6.466;2022-11-20T09:18:59;30.17;;;14.20;;
63114;SDS011;49208;50.874;6.466;2022-11-20T09:21:24;26.92;;;12.70;;
63114;SDS011;49208;50.874;6.466;2022-11-20T09:23:50;26.80;;;12.73;;
63114;SDS011;49208;50.874;6.466;2022-11-20T09:26:15;31.63;;;13.98;;
63114;SDS011;49208;50.874;6.466;2022-11-20T09:28:41;27.90;;;14.32;;
63114;SDS011;49208;50.874;6.466;2022-11-20T09:31:07;27.80;;;13.13;;
63114;SDS011;49208;50.874;6.466;2022-11-20T09:33:33;22.93;;;11.33;;
63114;SDS011;49208;50.874;6.466;2022-11-20T09:35:58;25.73;;;14.05;;
63114;SDS011;49208;50.874;6.466;2022-11-20T09:38:24;21.25;;;12.52;;
63114;SDS011;49208;50.874;6.466;2022-11-20T09:40:57;28.90;;;14.73;;
63114;SDS011;49208;50.874;6.466;2022-11-20T09:47:16;20.40;;;11.05;;
63114;SDS011;49208;50.874;6.466;2022-11-20T09:51:53;22.90;;;12.57;;
63114;SDS011;49208;50.874;6.466;2022-11-20T09:54:56;22.95;;;11.50;;
63114;SDS011;49208;50.874;6.466;2022-11-20T09:57:17;20.77;;;11.40;;
63114;SDS011;49208;50.874;6.466;2022-11-20T09:59:49;22.85;;;11.52;;
63114;SDS011;49208;50.874;6.466;2022-11-20T10:02:28;24.63;;;12.00;;
63114;SDS011;49208;50.874;6.466;2022-11-20T10:05:04;26.48;;;12.25;;
63114;SDS011;49208;50.874;6.466;2022-11-20T10:07:44;26.05;;;12.93;;
63114;SDS011;49208;50.874;6.466;2022-11-20T10:10:49;23.35;;;12.82;;
63114;SDS011;49208;50.874;6.466;2022-11-20T10:16:02;24.13;;;11.15;;
63114;SDS011;49208;50.874;6.466;2022-11-20T10:29:49;32.97;;;14.50;;
63114;SDS011;49208;50.874;6.466;2022-11-20T10:32:28;36.55;;;16.02;;
63114;SDS011;49208;50.874;6.466;2022-11-20T10:35:05;29.67;;;14.52;;
63114;SDS011;49208;50.874;6.466;2022-11-20T10:37:44;34.05;;;12.85;;
63114;SDS011;49208;50.874;6.466;2022-11-20T10:40:22;28.88;;;13.80;;
63114;SDS011;49208;50.874;6.466;2022-11-20T10:42:55;28.27;;;12.52;;
63114;SDS011;49208;50.874;6.466;2022-11-20T10:47:50;32.03;;;14.93;;
63114;SDS011;49208;50.874;6.466;2022-11-20T10:50:36;31.85;;;14.32;;
63114;SDS011;49208;50.874;6.466;2022-11-20T10:58:41;33.50;;;17.40;;
63114;SDS011;49208;50.874;6.466;2022-11-20T11:01:20;29.88;;;15.48;;
63114;SDS011;49208;50.874;6.466;2022-11-20T11:03:50;31.30;;;15.82;;
63114;SDS011;49208;50.874;6.466;2022-11-20T11:06:20;28.60;;;14.00;;
63114;SDS011;49208;50.874;6.466;2022-11-20T11:08:47;31.20;;;13.85;;
63114;SDS011;49208;50.874;6.466;2022-11-20T11:11:24;27.58;;;13.75;;
63114;SDS011;49208;50.874;6.466;2022-11-20T11:14:08;40.08;;;15.55;;
63114;SDS011;49208;50.874;6.466;2022-11-20T11:16:35;31.25;;;15.27;;
63114;SDS011;49208;50.874;6.466;2022-11-20T11:19:06;36.80;;;15.63;;
63114;SDS011;49208;50.874;6.466;2022-11-20T11:21:36;32.72;;;15.52;;
63114;SDS011;49208;50.874;6.466;2022-11-20T11:24:14;30.67;;;14.50;;
63114;SDS011;49208;50.874;6.466;2022-11-20T11:27:02;30.60;;;13.75;;
63114;SDS011;49208;50.874;6.466;2022-11-20T11:29:31;33.37;;;15.13;;
63114;SDS011;49208;50.874;6.466;2022-11-20T11:32:07;30.10;;;13.68;;
63114;SDS011;49208;50.874;6.466;2022-11-20T11:34:36;33.00;;;14.48;;
63114;SDS011;49208;50.874;6.466;2022-11-20T11:37:02;26.90;;;14.80;;
63114;SDS011;49208;50.874;6.466;2022-11-20T11:39:29;32.20;;;14.95;;
63114;SDS011;49208;50.874;6.466;2022-11-20T11:41:56;24.75;;;12.98;;
63114;SDS011;49208;50.874;6.466;2022-11-20T11:44:24;29.85;;;13.95;;
63114;SDS011;49208;50.874;6.466;2022-11-20T11:47:22;33.13;;;14.15;;
63114;SDS011;49208;50.874;6.466;2022-11-20T11:49:48;29.85;;;12.80;;
63114;SDS011;49208;50.874;6.466;2022-11-20T11:52:25;30.50;;;15.23;;
63114;SDS011;49208;50.874;6.466;2022-11-20T11:55:01;31.05;;;14.10;;
63114;SDS011;49208;50.874;6.466;2022-11-20T11:57:44;34.47;;;14.98;;
63114;SDS011;49208;50.874;6.466;2022-11-20T12:05:16;31.35;;;13.52;;
63114;SDS011;49208;50.874;6.466;2022-11-20T12:07:45;30.67;;;13.85;;
63114;SDS011;49208;50.874;6.466;2022-11-20T12:12:50;38.30;;;18.20;;
63114;SDS011;49208;50.874;6.466;2022-11-20T12:15:29;43.88;;;20.42;;
63114;SDS011;49208;50.874;6.466;2022-11-20T12:17:56;30.13;;;14.25;;
63114;SDS011;49208;50.874;6.466;2022-11-20T12:20:30;32.22;;;14.63;;
63114;SDS011;49208;50.874;6.466;2022-11-20T12:25:56;30.13;;;13.18;;
63114;SDS011;49208;50.874;6.466;2022-11-20T12:28:36;26.58;;;13.30;;
63114;SDS011;49208;50.874;6.466;2022-11-20T12:39:52;30.77;;;13.82;;
63114;SDS011;49208;50.874;6.466;2022-11-20T12:45:18;24.70;;;12.00;;
63114;SDS011;49208;50.874;6.466;2022-11-20T12:51:01;26.05;;;12.07;;
63114;SDS011;49208;50.874;6.466;2022-11-20T12:53:56;26.83;;;12.55;;
63114;SDS011;49208;50.874;6.466;2022-11-20T12:56:40;25.88;;;12.07;;
63114;SDS011;49208;50.874;6.466;2022-11-20T13:05:11;29.25;;;12.55;;
63114;SDS011;49208;50.874;6.466;2022-11-20T13:07:47;26.30;;;12.95;;
63114;SDS011;49208;50.874;6.466;2022-11-20T13:10:17;30.08;;;14.20;;
63114;SDS011;49208;50.874;6.466;2022-11-20T13:12:53;30.05;;;13.82;;
63114;SDS011;49208;50.874;6.466;2022-11-20T13:15:31;28.73;;;13.38;;
63114;SDS011;49208;50.874;6.466;2022-11-20T13:18:04;28.40;;;14.35;;
63114;SDS011;49208;50.874;6.466;2022-11-20T13:20:33;31.42;;;14.05;;
63114;SDS011;49208;50.874;6.466;2022-11-20T13:23:00;27.00;;;13.35;;
63114;SDS011;49208;50.874;6.466;2022-11-20T13:25:29;29.75;;;14.30;;
63114;SDS011;49208;50.874;6.466;2022-11-20T13:28:03;25.10;;;13.10;;
63114;SDS011;49208;50.874;6.466;2022-11-20T13:30:52;32.92;;;14.48;;
63114;SDS011;49208;50.874;6.466;2022-11-20T13:33:35;27.48;;;13.82;;
63114;SDS011;49208;50.874;6.466;2022-11-20T13:36:05;30.05;;;14.23;;
63114;SDS011;49208;50.874;6.466;2022-11-20T13:38:49;24.90;;;12.60;;
63114;SDS011;49208;50.874;6.466;2022-11-20T13:41:53;26.48;;;12.95;;
63114;SDS011;49208;50.874;6.466;2022-11-20T13:44:25;28.70;;;12.85;;
63114;SDS011;49208;50.874;6.466;2022-11-20T13:47:00;28.73;;;12.15;;
63114;SDS011;49208;50.874;6.466;2022-11-20T13:52:07;32.78;;;12.73;;
63114;SDS011;49208;50.874;6.466;2022-11-20T14:00:46;24.58;;;11.80;;
63114;SDS011;49208;50.874;6.466;2022-11-20T14:03:23;24.63;;;12.38;;
63114;SDS011;49208;50.874;6.466;2022-11-20T14:05:51;26.05;;;12.30;;
63114;SDS011;49208;50.874;6.466;2022-11-20T14:08:25;26.92;;;13.00;;
63114;SDS011;49208;50.874;6.466;2022-11-20T14:11:04;27.40;;;12.57;;
63114;SDS011;49208;50.874;6.466;2022-11-20T14:13:38;30.90;;;12.38;;
63114;SDS011;49208;50.874;6.466;2022-11-20T14:16:04;28.33;;;13.07;;
63114;SDS011;49208;50.874;6.466;2022-11-20T14:18:29;27.08;;;12.52;;
63114;SDS011;49208;50.874;6.466;2022-11-20T14:20:55;27.20;;;12.90;;
63114;SDS011;49208;50.874;6.466;2022-11-20T14:23:27;27.13;;;12.55;;
63114;SDS011;49208;50.874;6.466;2022-11-20T14:25:53;28.33;;;12.27;;
63114;SDS011;49208;50.874;6.466;2022-11-20T14:28:21;24.77;;;11.88;;
63114;SDS011;49208;50.874;6.466;2022-11-20T14:30:51;27.15;;;12.45;;
63114;SDS011;49208;50.874;6.466;2022-11-20T14:33:17;30.88;;;13.13;;
63114;SDS011;49208;50.874;6.466;2022-11-20T14:35:44;26.40;;;13.27;;
63114;SDS011;49208;50.874;6.466;2022-11-20T14:38:15;25.70;;;12.30;;
63114;SDS011;49208;50.874;6.466;2022-11-20T14:40:42;26.73;;;12.82;;
63114;SDS011;49208;50.874;6.466;2022-11-20T14:43:22;22.77;;;11.88;;
63114;SDS011;49208;50.874;6.466;2022-11-20T14:45:56;28.38;;;13.27;;
63114;SDS011;49208;50.874;6.466;2022-11-20T14:48:26;28.92;;;13.55;;
63114;SDS011;49208;50.874;6.466;2022-11-20T14:50:55;24.73;;;12.52;;
63114;SDS011;49208;50.874;6.466;2022-11-20T14:53:24;30.00;;;15.38;;
63114;SDS011;49208;50.874;6.466;2022-11-20T14:56:00;30.88;;;14.98;;
63114;SDS011;49208;50.874;6.466;2022-11-20T14:58:28;28.97;;;14.23;;
63114;SDS011;49208;50.874;6.466;2022-11-20T15:00:58;27.30;;;14.23;;
63114;SDS011;49208;50.874;6.466;2022-11-20T15:03:38;28.00;;;14.00;;
63114;SDS011;49208;50.874;6.466;2022-11-20T15:06:06;24.33;;;12.52;;
63114;SDS011;49208;50.874;6.466;2022-11-20T15:08:35;21.85;;;11.75;;
63114;SDS011;49208;50.874;6.466;2022-11-20T15:11:00;25.33;;;12.18;;
63114;SDS011;49208;50.874;6.466;2022-11-20T15:13:30;27.88;;;12.63;;
63114;SDS011;49208;50.874;6.466;2022-11-20T15:15:58;25.55;;;12.20;;
63114;SDS011;49208;50.874;6.466;2022-11-20T15:20:54;25.55;;;13.95;;
63114;SDS011;49208;50.874;6.466;2022-11-20T15:23:21;31.05;;;17.42;;
63114;SDS011;49208;50.874;6.466;2022-11-20T15:25:47;29.17;;;15.88;;
63114;SDS011;49208;50.874;6.466;2022-11-20T15:30:42;31.30;;;16.67;;
63114;SDS011;49208;50.874;6.466;2022-11-20T15:33:08;30.75;;;14.30;;
63114;SDS011;49208;50.874;6.466;2022-11-20T15:35:34;25.92;;;13.57;;
63114;SDS011;49208;50.874;6.466;2022-11-20T15:38:00;23.88;;;11.90;;
63114;SDS011;49208;50.874;6.466;2022-11-20T15:40:25;29.08;;;13.20;;
63114;SDS011;49208;50.874;6.466;2022-11-20T15:42:50;28.25;;;14.27;;
63114;SDS011;49208;50.874;6.466;2022-11-20T15:45:29;26.58;;;12.75;;
63114;SDS011;49208;50.874;6.466;2022-11-20T15:47:58;26.50;;;12.45;;
63114;SDS011;49208;50.874;6.466;2022-11-20T15:50:25;26.42;;;13.05;;
63114;SDS011;49208;50.874;6.466;2022-11-20T15:52:54;23.65;;;12.07;;
63114;SDS011;49208;50.874;6.466;2022-11-20T15:55:20;23.80;;;11.48;;
63114;SDS011;49208;50.874;6.466;2022-11-20T15:57:45;21.67;;;11.68;;
63114;SDS011;49208;50.874;6.466;2022-11-20T16:00:11;17.25;;;9.70;;
63114;SDS011;49208;50.874;6.466;2022-11-20T16:02:37;17.92;;;10.23;;
63114;SDS011;49208;50.874;6.466;2022-11-20T16:05:02;21.67;;;11.90;;
63114;SDS011;49208;50.874;6.466;2022-11-20T16:07:28;22.48;;;11.38;;
63114;SDS011;49208;50.874;6.466;2022-11-20T16:09:53;14.63;;;8.10;;
63114;SDS011;49208;50.874;6.466;2022-11-20T16:12:20;14.00;;;7.88;;
63114;SDS011;49208;50.874;6.466;2022-11-20T16:15:04;11.20;;;6.28;;
63114;SDS011;49208;50.874;6.466;2022-11-20T16:17:48;13.32;;;6.28;;
63114;SDS011;49208;50.874;6.466;2022-11-20T16:20:13;11.35;;;5.57;;
63114;SDS011;49208;50.874;6.466;2022-11-20T16:22:39;10.52;;;5.45;;
63114;SDS011;49208;50.874;6.466;2022-11-20T16:25:04;7.82;;;4.72;;
63114;SDS011;49208;50.874;6.466;2022-11-20T16:27:30;11.88;;;5.60;;
63114;SDS011;49208;50.874;6.466;2022-11-20T16:29:55;10.73;;;5.38;;
63114;SDS011;49208;50.874;6.466;2022-11-20T16:32:20;11.20;;;6.45;;
63114;SDS011;49208;50.874;6.466;2022-11-20T16:34:46;13.75;;;6.53;;
63114;SDS011;49208;50.874;6.466;2022-11-20T16:37:11;12.45;;;5.95;;
63114;SDS011;49208;50.874;6.466;2022-11-20T16:39:36;8.23;;;5.65;;
63114;SDS011;49208;50.874;6.466;2022-11-20T16:42:05;10.90;;;5.18;;
63114;SDS011;49208;50.874;6.466;2022-11-20T16:44:30;8.10;;;4.00;;
63114;SDS011;49208;50.874;6.466;2022-11-20T16:46:56;7.50;;;3.72;;
63114;SDS011;49208;50.874;6.466;2022-11-20T16:49:21;8.25;;;3.75;;
63114;SDS011;49208;50.874;6.466;2022-11-20T16:51:46;11.57;;;5.75;;
63114;SDS011;49208;50.874;6.466;2022-11-20T16:54:12;6.30;;;3.70;;
63114;SDS011;49208;50.874;6.466;2022-11-20T16:56:37;5.45;;;3.85;;
63114;SDS011;49208;50.874;6.466;2022-11-20T16:59:03;5.47;;;3.40;;
63114;SDS011;49208;50.874;6.466;2022-11-20T17:01:29;5.57;;;3.17;;
63114;SDS011;49208;50.874;6.466;2022-11-20T17:06:23;6.00;;;2.87;;
63114;SDS011;49208;50.874;6.466;2022-11-20T17:08:52;8.93;;;4.80;;
63114;SDS011;49208;50.874;6.466;2022-11-20T17:11:18;9.48;;;3.10;;
63114;SDS011;49208;50.874;6.466;2022-11-20T17:13:44;12.40;;;6.80;;
63114;SDS011;49208;50.874;6.466;2022-11-20T17:16:11;6.47;;;3.00;;
63114;SDS011;49208;50.874;6.466;2022-11-20T17:18:39;4.70;;;2.53;;
63114;SDS011;49208;50.874;6.466;2022-11-20T17:21:05;5.00;;;3.15;;
63114;SDS011;49208;50.874;6.466;2022-11-20T17:23:34;4.95;;;2.90;;
63114;SDS011;49208;50.874;6.466;2022-11-20T17:26:09;5.00;;;2.30;;
63114;SDS011;49208;50.874;6.466;2022-11-20T17:28:38;6.80;;;3.55;;
63114;SDS011;49208;50.874;6.466;2022-11-20T17:31:07;4.80;;;2.30;;
63114;SDS011;49208;50.874;6.466;2022-11-20T17:33:35;12.18;;;4.15;;
63114;SDS011;49208;50.874;6.466;2022-11-20T17:36:03;6.55;;;2.35;;
63114;SDS011;49208;50.874;6.466;2022-11-20T17:38:29;8.40;;;4.00;;
63114;SDS011;49208;50.874;6.466;2022-11-20T17:41:28;5.35;;;2.22;;
63114;SDS011;49208;50.874;6.466;2022-11-20T17:43:51;7.20;;;2.35;;
63114;SDS011;49208;50.874;6.466;2022-11-20T17:46:19;5.13;;;2.30;;
63114;SDS011;49208;50.874;6.466;2022-11-20T17:48:45;8.30;;;3.28;;
63114;SDS011;49208;50.874;6.466;2022-11-20T17:51:19;8.60;;;3.80;;
63114;SDS011;49208;50.874;6.466;2022-11-20T17:53:47;5.43;;;3.17;;
63114;SDS011;49208;50.874;6.466;2022-11-20T17:56:14;7.35;;;3.30;;
63114;SDS011;49208;50.874;6.466;2022-11-20T17:58:59;9.93;;;4.78;;
63114;SDS011;49208;50.874;6.466;2022-11-20T18:01:25;9.13;;;3.30;;
63114;SDS011;49208;50.874;6.466;2022-11-20T18:03:50;6.13;;;3.80;;
63114;SDS011;49208;50.874;6.466;2022-11-20T18:06:17;6.85;;;3.17;;
63114;SDS011;49208;50.874;6.466;2022-11-20T18:08:44;10.75;;;3.72;;
63114;SDS011;49208;50.874;6.466;2022-11-20T18:11:18;11.75;;;3.78;;
63114;SDS011;49208;50.874;6.466;2022-11-20T18:13:49;8.82;;;3.83;;
63114;SDS011;49208;50.874;6.466;2022-11-20T18:19:02;9.82;;;3.85;;
63114;SDS011;49208;50.874;6.466;2022-11-20T18:21:28;8.45;;;3.40;;
63114;SDS011;49208;50.874;6.466;2022-11-20T18:23:55;13.40;;;3.60;;
63114;SDS011;49208;50.874;6.466;2022-11-20T18:26:21;9.25;;;3.55;;
63114;SDS011;49208;50.874;6.466;2022-11-20T18:28:48;11.45;;;4.50;;
63114;SDS011;49208;50.874;6.466;2022-11-20T18:31:13;7.90;;;3.63;;
63114;SDS011;49208;50.874;6.466;2022-11-20T18:33:39;10.63;;;3.70;;
63114;SDS011;49208;50.874;6.466;2022-11-20T18:36:17;11.32;;;3.47;;
63114;SDS011;49208;50.874;6.466;2022-11-20T18:38:45;9.88;;;3.58;;
63114;SDS011;49208;50.874;6.466;2022-11-20T18:41:12;11.13;;;3.72;;
63114;SDS011;49208;50.874;6.466;2022-11-20T18:43:58;13.52;;;4.88;;
63114;SDS011;49208;50.874;6.466;2022-11-20T18:46:46;12.63;;;3.95;;
63114;SDS011;49208;50.874;6.466;2022-11-20T18:49:11;12.70;;;3.88;;
63114;SDS011;49208;50.874;6.466;2022-11-20T18:51:37;13.60;;;3.70;;
63114;SDS011;49208;50.874;6.466;2022-11-20T18:54:05;13.52;;;4.55;;
63114;SDS011;49208;50.874;6.466;2022-11-20T18:56:31;7.72;;;4.43;;
63114;SDS011;49208;50.874;6.466;2022-11-20T18:58:58;11.48;;;4.03;;
63114;SDS011;49208;50.874;6.466;2022-11-20T19:01:24;10.63;;;4.57;;
63114;SDS011;49208;50.874;6.466;2022-11-20T19:03:50;10.75;;;3.95;;
63114;SDS011;49208;50.874;6.466;2022-11-20T19:06:16;16.15;;;4.93;;
63114;SDS011;49208;50.874;6.466;2022-11-20T19:08:42;10.15;;;3.80;;
63114;SDS011;49208;50.874;6.466;2022-11-20T19:11:09;15.18;;;4.68;;
63114;SDS011;49208;50.874;6.466;2022-11-20T19:13:35;12.80;;;4.45;;
63114;SDS011;49208;50.874;6.466;2022-11-20T19:16:08;11.13;;;3.63;;
63114;SDS011;49208;50.874;6.466;2022-11-20T19:18:38;18.58;;;4.13;;
63114;SDS011;49208;50.874;6.466;2022-11-20T19:21:11;9.35;;;3.78;;
63114;SDS011;49208;50.874;6.466;2022-11-20T19:23:47;10.20;;;4.05;;
63114;SDS011;49208;50.874;6.466;2022-11-20T19:26:14;10.82;;;3.80;;
63114;SDS011;49208;50.874;6.466;2022-11-20T19:28:40;9.02;;;4.05;;
63114;SDS011;49208;50.874;6.466;2022-11-20T19:31:07;9.85;;;3.88;;
63114;SDS011;49208;50.874;6.466;2022-11-20T19:33:34;9.48;;;3.20;;
63114;SDS011;49208;50.874;6.466;2022-11-20T19:36:07;17.98;;;3.83;;
63114;SDS011;49208;50.874;6.466;2022-11-20T19:38:33;15.30;;;4.68;;
63114;SDS011;49208;50.874;6.466;2022-11-20T19:40:59;10.93;;;3.50;;
63114;SDS011;49208;50.874;6.466;2022-11-20T19:43:24;10.23;;;3.47;;
63114;SDS011;49208;50.874;6.466;2022-11-20T19:45:50;12.63;;;3.10;;
63114;SDS011;49208;50.874;6.466;2022-11-20T19:48:15;11.23;;;3.00;;
63114;SDS011;49208;50.874;6.466;2022-11-20T19:50:40;10.27;;;3.13;;
63114;SDS011;49208;50.874;6.466;2022-11-20T19:53:06;8.43;;;3.08;;
63114;SDS011;49208;50.874;6.466;2022-11-20T19:55:31;9.23;;;2.47;;
63114;SDS011;49208;50.874;6.466;2022-11-20T19:57:57;12.55;;;2.85;;
63114;SDS011;49208;50.874;6.466;2022-11-20T20:00:22;7.25;;;2.30;;
63114;SDS011;49208;50.874;6.466;2022-11-20T20:02:48;11.75;;;2.95;;
63114;SDS011;49208;50.874;6.466;2022-11-20T20:05:13;6.85;;;2.97;;
63114;SDS011;49208;50.874;6.466;2022-11-20T20:07:39;12.82;;;2.80;;
63114;SDS011;49208;50.874;6.466;2022-11-20T20:10:04;8.93;;;2.50;;
63114;SDS011;49208;50.874;6.466;2022-11-20T20:12:30;7.97;;;1.88;;
63114;SDS011;49208;50.874;6.466;2022-11-20T20:14:56;8.82;;;2.20;;
63114;SDS011;49208;50.874;6.466;2022-11-20T20:17:21;6.90;;;2.15;;
63114;SDS011;49208;50.874;6.466;2022-11-20T20:19:46;8.57;;;2.00;;
63114;SDS011;49208;50.874;6.466;2022-11-20T20:22:12;8.40;;;2.03;;
63114;SDS011;49208;50.874;6.466;2022-11-20T20:24:37;6.10;;;1.75;;
63114;SDS011;49208;50.874;6.466;2022-11-20T20:27:02;8.40;;;2.10;;
63114;SDS011;49208;50.874;6.466;2022-11-20T20:29:28;7.20;;;2.50;;
63114;SDS011;49208;50.874;6.466;2022-11-20T20:31:53;7.35;;;1.80;;
63114;SDS011;49208;50.874;6.466;2022-11-20T20:34:19;15.30;;;2.90;;
63114;SDS011;49208;50.874;6.466;2022-11-20T20:36:44;9.57;;;1.92;;
63114;SDS011;49208;50.874;6.466;2022-11-20T20:39:10;9.32;;;2.10;;
63114;SDS011;49208;50.874;6.466;2022-11-20T20:41:35;10.00;;;2.40;;
63114;SDS011;49208;50.874;6.466;2022-11-20T20:44:01;8.68;;;1.85;;
63114;SDS011;49208;50.874;6.466;2022-11-20T20:46:45;5.53;;;2.05;;
63114;SDS011;49208;50.874;6.466;2022-11-20T20:49:11;8.40;;;1.88;;
63114;SDS011;49208;50.874;6.466;2022-11-20T20:51:36;8.13;;;2.63;;
63114;SDS011;49208;50.874;6.466;2022-11-20T20:54:02;8.90;;;2.03;;
63114;SDS011;49208;50.874;6.466;2022-11-20T20:56:27;7.28;;;1.98;;
63114;SDS011;49208;50.874;6.466;2022-11-20T20:58:52;8.35;;;2.67;;
63114;SDS011;49208;50.874;6.466;2022-11-20T21:01:18;11.75;;;2.50;;
63114;SDS011;49208;50.874;6.466;2022-11-20T21:03:44;11.10;;;2.80;;
63114;SDS011;49208;50.874;6.466;2022-11-20T21:06:10;6.60;;;2.33;;
63114;SDS011;49208;50.874;6.466;2022-11-20T21:08:36;8.07;;;2.60;;
63114;SDS011;49208;50.874;6.466;2022-11-20T21:11:06;8.07;;;2.50;;
63114;SDS011;49208;50.874;6.466;2022-11-20T21:13:33;10.73;;;2.83;;
63114;SDS011;49208;50.874;6.466;2022-11-20T21:16:00;10.50;;;3.50;;
63114;SDS011;49208;50.874;6.466;2022-11-20T21:18:26;11.38;;;3.03;;
63114;SDS011;49208;50.874;6.466;2022-11-20T21:20:51;9.02;;;2.55;;
63114;SDS011;49208;50.874;6.466;2022-11-20T21:23:44;9.98;;;3.45;;
63114;SDS011;49208;50.874;6.466;2022-11-20T21:26:10;7.65;;;2.70;;
63114;SDS011;49208;50.874;6.466;2022-11-20T21:28:35;8.13;;;2.42;;
63114;SDS011;49208;50.874;6.466;2022-11-20T21:33:38;7.93;;;2.92;;
63114;SDS011;49208;50.874;6.466;2022-11-20T21:36:05;16.88;;;3.17;;
63114;SDS011;49208;50.874;6.466;2022-11-20T21:38:34;13.45;;;3.55;;
63114;SDS011;49208;50.874;6.466;2022-11-20T21:41:00;10.25;;;3.45;;
63114;SDS011;49208;50.874;6.466;2022-11-20T21:43:26;8.67;;;2.83;;
63114;SDS011;49208;50.874;6.466;2022-11-20T21:45:52;9.30;;;2.58;;
63114;SDS011;49208;50.874;6.466;2022-11-20T21:48:20;13.15;;;3.15;;
63114;SDS011;49208;50.874;6.466;2022-11-20T21:50:47;8.97;;;2.90;;
63114;SDS011;49208;50.874;6.466;2022-11-20T21:53:12;10.65;;;3.78;;
63114;SDS011;49208;50.874;6.466;2022-11-20T21:55:37;12.77;;;3.45;;
63114;SDS011;49208;50.874;6.466;2022-11-20T21:58:03;8.98;;;2.83;;
63114;SDS011;49208;50.874;6.466;2022-11-20T22:00:28;13.02;;;3.20;;